sensor_id;sensor_type;location;lat;lon;timestamp;pressure;altitude;pressure_sealevel;temperature;humidity
62293;BME280;48292;47.724;18.992;2022-10-16T03:35:58;97900.16;;;10.14;90.73
62293;BME280;48292;47.724;18.992;2022-10-16T03:40:59;97900.16;;;10.14;90.73
62293;BME280;48292;47.724;18.992;2022-10-16T03:46:01;97903.09;;;9.94;91.21
62293;BME280;48292;47.724;18.992;2022-10-16T03:51:03;97903.09;;;9.94;91.21
62293;BME280;48292;47.724;18.992;2022-10-16T03:56:05;97908.8;;;9.87;92.12
62293;BME280;48292;47.724;18.992;2022-10-16T04:01:07;97908.8;;;9.87;92.12
62293;BME280;48292;47.724;18.992;2022-10-16T04:06:09;97918.85;;;9.52;94.75
62293;BME280;48292;47.724;18.992;2022-10-16T04:11:11;97918.85;;;9.52;94.75
62293;BME280;48292;47.724;18.992;2022-10-16T04:16:12;97930.89;;;9.47;95.45
62293;BME280;48292;47.724;18.992;2022-10-16T04:21:14;97921.72;;;9.05;97.12
62293;BME280;48292;47.724;18.992;2022-10-16T04:26:16;97921.72;;;9.05;97.12
62293;BME280;48292;47.724;18.992;2022-10-16T04:31:18;97938.91;;;9.16;96.19
62293;BME280;48292;47.724;18.992;2022-10-16T04:36:19;97938.91;;;9.16;96.19
62293;BME280;48292;47.724;18.992;2022-10-16T04:41:29;97941.06;;;9.2;95.85
62293;BME280;48292;47.724;18.992;2022-10-16T04:46:31;97941.06;;;9.2;95.85
62293;BME280;48292;47.724;18.992;2022-10-16T04:51:33;97943.27;;;9.15;94.63
62293;BME280;48292;47.724;18.992;2022-10-16T04:56:34;97943.27;;;9.15;94.63
62293;BME280;48292;47.724;18.992;2022-10-16T05:01:36;97935.05;;;9.01;95.52
62293;BME280;48292;47.724;18.992;2022-10-16T05:06:38;97935.05;;;9.01;95.52
62293;BME280;48292;47.724;18.992;2022-10-16T05:11:40;97946.56;;;8.87;96.57
62293;BME280;48292;47.724;18.992;2022-10-16T05:16:42;97946.56;;;8.87;96.57
62293;BME280;48292;47.724;18.992;2022-10-16T05:21:43;97943.74;;;8.64;97.93
62293;BME280;48292;47.724;18.992;2022-10-16T05:26:45;97943.74;;;8.64;97.93
62293;BME280;48292;47.724;18.992;2022-10-16T05:31:49;97959.46;;;8.51;98.32
62293;BME280;48292;47.724;18.992;2022-10-16T05:36:51;97963.68;;;8.5;98.9
62293;BME280;48292;47.724;18.992;2022-10-16T05:41:52;97963.68;;;8.5;98.9
62293;BME280;48292;47.724;18.992;2022-10-16T05:46:54;97970.88;;;8.51;97.76
62293;BME280;48292;47.724;18.992;2022-10-16T05:51:56;97970.88;;;8.51;97.76
62293;BME280;48292;47.724;18.992;2022-10-16T05:56:58;97977.84;;;8.65;96.64
62293;BME280;48292;47.724;18.992;2022-10-16T06:02:00;97977.84;;;8.65;96.64
62293;BME280;48292;47.724;18.992;2022-10-16T06:07:02;97990.5;;;8.7;97.26
62293;BME280;48292;47.724;18.992;2022-10-16T06:12:04;97990.5;;;8.7;97.26
62293;BME280;48292;47.724;18.992;2022-10-16T06:17:06;97994.13;;;8.82;95.85
62293;BME280;48292;47.724;18.992;2022-10-16T06:22:08;97994.13;;;8.82;95.85
62293;BME280;48292;47.724;18.992;2022-10-16T06:27:10;98007.5;;;8.98;94.54
62293;BME280;48292;47.724;18.992;2022-10-16T06:32:12;98007.5;;;8.98;94.54
62293;BME280;48292;47.724;18.992;2022-10-16T06:37:14;98033.36;;;9.09;94.79
62293;BME280;48292;47.724;18.992;2022-10-16T06:42:16;98033.36;;;9.09;94.79
62293;BME280;48292;47.724;18.992;2022-10-16T06:47:18;98033.99;;;9.25;93.24
62293;BME280;48292;47.724;18.992;2022-10-16T06:52:19;98055.95;;;9.5;89.61
62293;BME280;48292;47.724;18.992;2022-10-16T06:57:21;98055.95;;;9.5;89.61
62293;BME280;48292;47.724;18.992;2022-10-16T07:02:23;98066.38;;;9.74;88.12
62293;BME280;48292;47.724;18.992;2022-10-16T07:07:26;98066.38;;;9.74;88.12
62293;BME280;48292;47.724;18.992;2022-10-16T07:12:28;98080.2;;;9.81;86.5
62293;BME280;48292;47.724;18.992;2022-10-16T07:17:30;98080.2;;;9.81;86.5
62293;BME280;48292;47.724;18.992;2022-10-16T07:22:32;98095.42;;;9.98;88.25
62293;BME280;48292;47.724;18.992;2022-10-16T07:27:34;98095.42;;;9.98;88.25
62293;BME280;48292;47.724;18.992;2022-10-16T07:32:35;98111.33;;;10.05;89.31
62293;BME280;48292;47.724;18.992;2022-10-16T07:37:37;98111.33;;;10.05;89.31
62293;BME280;48292;47.724;18.992;2022-10-16T07:42:39;98107.52;;;10.37;87.01
62293;BME280;48292;47.724;18.992;2022-10-16T07:47:41;98107.52;;;10.37;87.01
62293;BME280;48292;47.724;18.992;2022-10-16T07:52:43;98110.16;;;10.7;84.67
62293;BME280;48292;47.724;18.992;2022-10-16T07:57:44;98110.16;;;10.7;84.67
62293;BME280;48292;47.724;18.992;2022-10-16T08:02:46;98112.97;;;10.8;85.78
62293;BME280;48292;47.724;18.992;2022-10-16T08:07:48;98112.97;;;10.8;85.78
62293;BME280;48292;47.724;18.992;2022-10-16T08:12:50;98126.97;;;11.3;82.71
62293;BME280;48292;47.724;18.992;2022-10-16T08:17:56;98124.94;;;11.7;80.63
62293;BME280;48292;47.724;18.992;2022-10-16T08:22:58;98124.94;;;11.7;80.63
62293;BME280;48292;47.724;18.992;2022-10-16T08:28:02;98141.66;;;11.89;80.31
62293;BME280;48292;47.724;18.992;2022-10-16T08:33:04;98141.66;;;11.89;80.31
62293;BME280;48292;47.724;18.992;2022-10-16T08:38:06;98154.63;;;12.08;76.51
62293;BME280;48292;47.724;18.992;2022-10-16T08:43:12;98154.63;;;12.08;76.51
62293;BME280;48292;47.724;18.992;2022-10-16T08:48:18;98158.28;;;12.47;74.34
62293;BME280;48292;47.724;18.992;2022-10-16T08:53:23;98158.28;;;12.47;74.34
62293;BME280;48292;47.724;18.992;2022-10-16T08:58:27;98161.13;;;12.93;73.56
62293;BME280;48292;47.724;18.992;2022-10-16T09:03:33;98161.13;;;12.93;73.56
62293;BME280;48292;47.724;18.992;2022-10-16T09:08:41;98150.28;;;13.44;73.41
62293;BME280;48292;47.724;18.992;2022-10-16T09:13:48;98150.28;;;13.44;73.41
62293;BME280;48292;47.724;18.992;2022-10-16T09:18:53;98154.41;;;13.59;70.21
62293;BME280;48292;47.724;18.992;2022-10-16T09:23:57;98154.41;;;13.59;70.21
62293;BME280;48292;47.724;18.992;2022-10-16T09:29:00;98160.88;;;14.06;71.74
62293;BME280;48292;47.724;18.992;2022-10-16T09:34:03;98170.92;;;16.4;61.73
62293;BME280;48292;47.724;18.992;2022-10-16T09:39:07;98170.92;;;16.4;61.73
62293;BME280;48292;47.724;18.992;2022-10-16T09:49:21;98175.02;;;16.3;62.4
62293;BME280;48292;47.724;18.992;2022-10-16T09:54:23;98184.3;;;16.08;64.71
62293;BME280;48292;47.724;18.992;2022-10-16T09:59:24;98184.3;;;16.08;64.71
62293;BME280;48292;47.724;18.992;2022-10-16T10:04:26;98179.33;;;17.08;62.38
62293;BME280;48292;47.724;18.992;2022-10-16T10:09:32;98179.33;;;17.08;62.38
62293;BME280;48292;47.724;18.992;2022-10-16T10:14:38;98157.41;;;16.16;61.41
62293;BME280;48292;47.724;18.992;2022-10-16T10:19:43;98157.41;;;16.16;61.41
62293;BME280;48292;47.724;18.992;2022-10-16T10:29:53;98167.53;;;16.98;58.94
62293;BME280;48292;47.724;18.992;2022-10-16T10:35:02;98173.37;;;17.53;58.43
62293;BME280;48292;47.724;18.992;2022-10-16T10:40:07;98173.37;;;17.53;58.43
62293;BME280;48292;47.724;18.992;2022-10-16T10:45:16;98171.23;;;17.04;58.62
62293;BME280;48292;47.724;18.992;2022-10-16T10:50:20;98176.89;;;17.34;56.38
62293;BME280;48292;47.724;18.992;2022-10-16T10:55:26;98176.89;;;17.34;56.38
62293;BME280;48292;47.724;18.992;2022-10-16T11:00:31;98173.51;;;17.47;57.63
62293;BME280;48292;47.724;18.992;2022-10-16T11:05:38;98173.51;;;17.47;57.63
62293;BME280;48292;47.724;18.992;2022-10-16T11:10:44;98162.03;;;18.56;54.03
62293;BME280;48292;47.724;18.992;2022-10-16T11:15:47;98162.03;;;18.56;54.03
62293;BME280;48292;47.724;18.992;2022-10-16T11:20:51;98149.19;;;17.6;57.66
62293;BME280;48292;47.724;18.992;2022-10-16T11:25:56;98149.19;;;17.6;57.66
62293;BME280;48292;47.724;18.992;2022-10-16T11:30:59;98143.0;;;17.25;58.01
62293;BME280;48292;47.724;18.992;2022-10-16T11:36:06;98143.0;;;17.25;58.01
62293;BME280;48292;47.724;18.992;2022-10-16T11:41:12;98156.09;;;17.99;56.64
62293;BME280;48292;47.724;18.992;2022-10-16T11:46:16;98156.09;;;17.99;56.64
62293;BME280;48292;47.724;18.992;2022-10-16T11:51:21;98159.77;;;18.94;51.85
62293;BME280;48292;47.724;18.992;2022-10-16T11:56:25;98159.77;;;18.94;51.85
62293;BME280;48292;47.724;18.992;2022-10-16T12:01:28;98144.94;;;19.64;51.15
62293;BME280;48292;47.724;18.992;2022-10-16T12:06:34;98144.43;;;19.68;52.83
62293;BME280;48292;47.724;18.992;2022-10-16T12:11:38;98144.43;;;19.68;52.83
62293;BME280;48292;47.724;18.992;2022-10-16T12:21:46;98136.74;;;20.07;50.25
62293;BME280;48292;47.724;18.992;2022-10-16T12:26:47;98134.47;;;19.68;50.98
62293;BME280;48292;47.724;18.992;2022-10-16T12:31:50;98134.47;;;19.68;50.98
62293;BME280;48292;47.724;18.992;2022-10-16T12:36:56;98135.38;;;19.88;52.08
62293;BME280;48292;47.724;18.992;2022-10-16T12:42:02;98135.38;;;19.88;52.08
62293;BME280;48292;47.724;18.992;2022-10-16T12:47:18;98143.69;;;20.22;50.82
62293;BME280;48292;47.724;18.992;2022-10-16T12:57:25;98143.92;;;20.3;49.86
62293;BME280;48292;47.724;18.992;2022-10-16T13:07:40;98148.83;;;20.06;50.13
62293;BME280;48292;47.724;18.992;2022-10-16T13:12:51;98155.39;;;20.83;46.99
62293;BME280;48292;47.724;18.992;2022-10-16T13:17:57;98155.39;;;20.83;46.99
62293;BME280;48292;47.724;18.992;2022-10-16T13:23:04;98159.8;;;21.28;45.97
62293;BME280;48292;47.724;18.992;2022-10-16T13:28:10;98159.8;;;21.28;45.97
62293;BME280;48292;47.724;18.992;2022-10-16T13:33:13;98152.32;;;21.71;46.64
62293;BME280;48292;47.724;18.992;2022-10-16T13:38:17;98152.32;;;21.71;46.64
62293;BME280;48292;47.724;18.992;2022-10-16T13:43:19;98154.47;;;21.65;45.06
62293;BME280;48292;47.724;18.992;2022-10-16T13:48:22;98154.47;;;21.65;45.06
62293;BME280;48292;47.724;18.992;2022-10-16T13:53:24;98153.83;;;21.79;44.3
62293;BME280;48292;47.724;18.992;2022-10-16T13:58:26;98153.83;;;21.79;44.3
62293;BME280;48292;47.724;18.992;2022-10-16T14:03:27;98161.38;;;21.98;47.94
62293;BME280;48292;47.724;18.992;2022-10-16T14:08:30;98161.38;;;21.98;47.94
62293;BME280;48292;47.724;18.992;2022-10-16T14:13:32;98160.39;;;22.42;42.97
62293;BME280;48292;47.724;18.992;2022-10-16T14:18:35;98163.88;;;21.65;43.42
62293;BME280;48292;47.724;18.992;2022-10-16T14:23:39;98163.88;;;21.65;43.42
62293;BME280;48292;47.724;18.992;2022-10-16T14:28:41;98168.7;;;21.73;44.48
62293;BME280;48292;47.724;18.992;2022-10-16T14:33:43;98168.7;;;21.73;44.48
62293;BME280;48292;47.724;18.992;2022-10-16T14:38:48;98170.63;;;21.57;45.12
62293;BME280;48292;47.724;18.992;2022-10-16T14:43:51;98170.63;;;21.57;45.12
62293;BME280;48292;47.724;18.992;2022-10-16T14:48:56;98179.48;;;21.76;44.53
62293;BME280;48292;47.724;18.992;2022-10-16T14:54:01;98179.48;;;21.76;44.53
62293;BME280;48292;47.724;18.992;2022-10-16T14:59:03;98180.81;;;19.94;46.42
62293;BME280;48292;47.724;18.992;2022-10-16T15:04:07;98180.81;;;19.94;46.42
62293;BME280;48292;47.724;18.992;2022-10-16T15:09:10;98189.34;;;18.9;52.82
62293;BME280;48292;47.724;18.992;2022-10-16T15:14:12;98189.34;;;18.9;52.82
62293;BME280;48292;47.724;18.992;2022-10-16T15:19:14;98193.8;;;17.64;56.03
62293;BME280;48292;47.724;18.992;2022-10-16T15:24:16;98186.61;;;16.58;58.45
62293;BME280;48292;47.724;18.992;2022-10-16T15:29:22;98186.61;;;16.58;58.45
62293;BME280;48292;47.724;18.992;2022-10-16T15:34:24;98200.09;;;15.63;63.45
62293;BME280;48292;47.724;18.992;2022-10-16T15:39:26;98200.09;;;15.63;63.45
62293;BME280;48292;47.724;18.992;2022-10-16T15:44:28;98230.0;;;15.27;68.21
62293;BME280;48292;47.724;18.992;2022-10-16T15:49:29;98230.0;;;15.27;68.21
62293;BME280;48292;47.724;18.992;2022-10-16T15:54:31;98238.66;;;14.91;66.63
62293;BME280;48292;47.724;18.992;2022-10-16T15:59:33;98238.66;;;14.91;66.63
62293;BME280;48292;47.724;18.992;2022-10-16T16:04:35;98248.98;;;14.5;67.82
62293;BME280;48292;47.724;18.992;2022-10-16T16:09:41;98248.98;;;14.5;67.82
62293;BME280;48292;47.724;18.992;2022-10-16T16:14:43;98263.57;;;14.28;67.81
62293;BME280;48292;47.724;18.992;2022-10-16T16:19:45;98263.57;;;14.28;67.81
62293;BME280;48292;47.724;18.992;2022-10-16T16:24:47;98280.36;;;13.84;75.07
62293;BME280;48292;47.724;18.992;2022-10-16T16:29:49;98280.36;;;13.84;75.07
62293;BME280;48292;47.724;18.992;2022-10-16T16:34:51;98290.53;;;13.41;76.7
62293;BME280;48292;47.724;18.992;2022-10-16T16:39:53;98287.91;;;13.44;72.62
62293;BME280;48292;47.724;18.992;2022-10-16T16:44:55;98287.91;;;13.44;72.62
62293;BME280;48292;47.724;18.992;2022-10-16T16:49:57;98295.96;;;13.14;78.53
62293;BME280;48292;47.724;18.992;2022-10-16T16:54:59;98295.96;;;13.14;78.53
62293;BME280;48292;47.724;18.992;2022-10-16T17:00:01;98310.72;;;12.62;79.86
62293;BME280;48292;47.724;18.992;2022-10-16T17:05:04;98310.72;;;12.62;79.86
62293;BME280;48292;47.724;18.992;2022-10-16T17:10:08;98320.52;;;12.42;82.47
62293;BME280;48292;47.724;18.992;2022-10-16T17:15:11;98320.52;;;12.42;82.47
62293;BME280;48292;47.724;18.992;2022-10-16T17:20:15;98337.64;;;12.21;81.84
62293;BME280;48292;47.724;18.992;2022-10-16T17:25:18;98337.64;;;12.21;81.84
62293;BME280;48292;47.724;18.992;2022-10-16T17:30:28;98358.81;;;12.03;83.26
62293;BME280;48292;47.724;18.992;2022-10-16T17:35:35;98358.81;;;12.03;83.26
62293;BME280;48292;47.724;18.992;2022-10-16T17:40:39;98368.61;;;11.91;82.76
62293;BME280;48292;47.724;18.992;2022-10-16T17:45:43;98378.3;;;11.92;85.11
62293;BME280;48292;47.724;18.992;2022-10-16T17:50:47;98378.3;;;11.92;85.11
62293;BME280;48292;47.724;18.992;2022-10-16T17:55:51;98381.64;;;11.85;86.46
62293;BME280;48292;47.724;18.992;2022-10-16T18:00:53;98381.64;;;11.85;86.46
62293;BME280;48292;47.724;18.992;2022-10-16T18:05:58;98386.69;;;12.1;87.26
62293;BME280;48292;47.724;18.992;2022-10-16T18:11:03;98386.69;;;12.1;87.26
62293;BME280;48292;47.724;18.992;2022-10-16T18:16:07;98389.03;;;12.1;83.93
62293;BME280;48292;47.724;18.992;2022-10-16T18:21:12;98389.03;;;12.1;83.93
62293;BME280;48292;47.724;18.992;2022-10-16T18:26:16;98397.02;;;12.08;84.94
62293;BME280;48292;47.724;18.992;2022-10-16T18:31:19;98397.02;;;12.08;84.94
62293;BME280;48292;47.724;18.992;2022-10-16T18:36:23;98400.91;;;12.07;84.25
62293;BME280;48292;47.724;18.992;2022-10-16T18:41:26;98400.91;;;12.07;84.25
62293;BME280;48292;47.724;18.992;2022-10-16T18:46:29;98396.13;;;11.68;85.09
62293;BME280;48292;47.724;18.992;2022-10-16T18:51:33;98396.13;;;11.68;85.09
62293;BME280;48292;47.724;18.992;2022-10-16T18:56:37;98395.29;;;12.04;83.23
62293;BME280;48292;47.724;18.992;2022-10-16T19:01:40;98387.66;;;12.09;80.81
62293;BME280;48292;47.724;18.992;2022-10-16T19:06:45;98387.66;;;12.09;80.81
62293;BME280;48292;47.724;18.992;2022-10-16T19:11:49;98394.61;;;12.18;80.21
62293;BME280;48292;47.724;18.992;2022-10-16T19:16:54;98394.61;;;12.18;80.21
62293;BME280;48292;47.724;18.992;2022-10-16T19:21:58;98412.81;;;12.12;80.46
62293;BME280;48292;47.724;18.992;2022-10-16T19:27:02;98412.81;;;12.12;80.46
62293;BME280;48292;47.724;18.992;2022-10-16T19:32:04;98422.09;;;11.93;82.42
62293;BME280;48292;47.724;18.992;2022-10-16T19:37:10;98422.09;;;11.93;82.42
62293;BME280;48292;47.724;18.992;2022-10-16T19:42:12;98435.09;;;11.68;84.13
62293;BME280;48292;47.724;18.992;2022-10-16T19:47:15;98435.09;;;11.68;84.13
62293;BME280;48292;47.724;18.992;2022-10-16T19:52:24;98444.05;;;11.84;83.64
62293;BME280;48292;47.724;18.992;2022-10-16T19:57:27;98444.05;;;11.84;83.64
62293;BME280;48292;47.724;18.992;2022-10-16T20:02:29;98457.38;;;11.6;83.6
62293;BME280;48292;47.724;18.992;2022-10-16T20:07:32;98479.02;;;11.46;85.56
62293;BME280;48292;47.724;18.992;2022-10-16T20:12:38;98479.02;;;11.46;85.56
62293;BME280;48292;47.724;18.992;2022-10-16T20:17:39;98497.78;;;11.06;88.44
62293;BME280;48292;47.724;18.992;2022-10-16T20:22:41;98497.78;;;11.06;88.44
62293;BME280;48292;47.724;18.992;2022-10-16T20:27:43;98507.8;;;10.92;90.32
62293;BME280;48292;47.724;18.992;2022-10-16T20:32:45;98507.8;;;10.92;90.32
62293;BME280;48292;47.724;18.992;2022-10-16T20:37:46;98512.42;;;11.36;90.88
62293;BME280;48292;47.724;18.992;2022-10-16T20:42:48;98512.42;;;11.36;90.88
62293;BME280;48292;47.724;18.992;2022-10-16T20:47:50;98520.81;;;11.53;86.34
62293;BME280;48292;47.724;18.992;2022-10-16T20:52:51;98520.81;;;11.53;86.34
62293;BME280;48292;47.724;18.992;2022-10-16T20:57:53;98520.81;;;11.53;86.34
62293;BME280;48292;47.724;18.992;2022-10-16T21:02:55;98520.81;;;11.53;86.34
62293;BME280;48292;47.724;18.992;2022-10-16T21:07:57;98520.81;;;11.53;86.34
62293;BME280;48292;47.724;18.992;2022-10-16T21:12:58;98520.81;;;11.53;86.34
62293;BME280;48292;47.724;18.992;2022-10-16T21:18:01;98520.81;;;11.53;86.34
62293;BME280;48292;47.724;18.992;2022-10-16T21:23:02;98520.81;;;11.53;86.34
62293;BME280;48292;47.724;18.992;2022-10-16T21:28:04;98520.81;;;11.53;86.34
62293;BME280;48292;47.724;18.992;2022-10-16T21:33:06;98520.81;;;11.53;86.34
62293;BME280;48292;47.724;18.992;2022-10-16T21:38:07;98520.81;;;11.53;86.34
62293;BME280;48292;47.724;18.992;2022-10-16T21:43:09;98520.81;;;11.53;86.34
